sensor_id;sensor_type;location;lat;lon;timestamp;P1;durP1;ratioP1;P2;durP2;ratioP2
11092;SDS011;5600;50.864;6.102;2024-03-23T00:55:43;106.30;;;11.23;;
11092;SDS011;5600;50.864;6.102;2024-03-23T00:58:44;119.83;;;13.40;;
11092;SDS011;5600;50.864;6.102;2024-03-23T01:01:45;105.37;;;6.83;;
11092;SDS011;5600;50.864;6.102;2024-03-23T01:04:46;103.27;;;6.17;;
11092;SDS011;5600;50.864;6.102;2024-03-23T01:07:47;97.73;;;6.27;;
11092;SDS011;5600;50.864;6.102;2024-03-23T01:10:58;84.90;;;5.73;;
11092;SDS011;5600;50.864;6.102;2024-03-23T01:14:00;73.50;;;5.33;;
11092;SDS011;5600;50.864;6.102;2024-03-23T01:17:01;76.03;;;5.23;;
11092;SDS011;5600;50.864;6.102;2024-03-23T01:20:02;78.10;;;5.30;;
11092;SDS011;5600;50.864;6.102;2024-03-23T01:23:04;73.97;;;5.30;;
11092;SDS011;5600;50.864;6.102;2024-03-23T01:26:05;86.87;;;5.43;;
11092;SDS011;5600;50.864;6.102;2024-03-23T01:29:06;90.83;;;5.83;;
11092;SDS011;5600;50.864;6.102;2024-03-23T01:32:07;95.37;;;5.97;;
11092;SDS011;5600;50.864;6.102;2024-03-23T01:35:08;84.10;;;5.27;;
11092;SDS011;5600;50.864;6.102;2024-03-23T01:38:09;88.67;;;8.67;;
11092;SDS011;5600;50.864;6.102;2024-03-23T01:41:10;75.43;;;5.43;;
11092;SDS011;5600;50.864;6.102;2024-03-23T01:44:12;89.57;;;5.47;;
11092;SDS011;5600;50.864;6.102;2024-03-23T01:47:14;38.90;;;3.53;;
11092;SDS011;5600;50.864;6.102;2024-03-23T01:50:15;26.20;;;3.17;;
11092;SDS011;5600;50.864;6.102;2024-03-23T01:53:16;60.60;;;4.50;;
11092;SDS011;5600;50.864;6.102;2024-03-23T01:56:20;82.17;;;5.40;;
11092;SDS011;5600;50.864;6.102;2024-03-23T01:59:21;79.60;;;4.87;;
11092;SDS011;5600;50.864;6.102;2024-03-23T02:02:22;177.17;;;15.37;;
11092;SDS011;5600;50.864;6.102;2024-03-23T02:05:23;83.20;;;10.40;;
11092;SDS011;5600;50.864;6.102;2024-03-23T02:08:24;83.77;;;12.13;;
11092;SDS011;5600;50.864;6.102;2024-03-23T02:11:25;74.60;;;9.53;;
11092;SDS011;5600;50.864;6.102;2024-03-23T02:14:26;84.30;;;12.40;;
11092;SDS011;5600;50.864;6.102;2024-03-23T02:17:28;96.00;;;12.40;;
11092;SDS011;5600;50.864;6.102;2024-03-23T02:20:30;87.13;;;11.27;;
11092;SDS011;5600;50.864;6.102;2024-03-23T02:23:31;84.67;;;8.50;;
11092;SDS011;5600;50.864;6.102;2024-03-23T02:26:32;79.13;;;10.67;;
11092;SDS011;5600;50.864;6.102;2024-03-23T02:29:33;103.60;;;12.17;;
11092;SDS011;5600;50.864;6.102;2024-03-23T02:32:35;92.43;;;13.17;;
11092;SDS011;5600;50.864;6.102;2024-03-23T02:35:35;110.73;;;12.37;;
11092;SDS011;5600;50.864;6.102;2024-03-23T02:38:36;108.40;;;11.03;;
11092;SDS011;5600;50.864;6.102;2024-03-23T02:41:37;95.97;;;11.67;;
11092;SDS011;5600;50.864;6.102;2024-03-23T02:44:38;103.03;;;13.17;;
11092;SDS011;5600;50.864;6.102;2024-03-23T02:47:40;103.80;;;13.37;;
11092;SDS011;5600;50.864;6.102;2024-03-23T02:50:41;73.47;;;11.03;;
11092;SDS011;5600;50.864;6.102;2024-03-23T02:53:41;64.87;;;9.90;;
11092;SDS011;5600;50.864;6.102;2024-03-23T02:56:42;95.10;;;13.03;;
11092;SDS011;5600;50.864;6.102;2024-03-23T02:59:43;95.43;;;11.70;;
11092;SDS011;5600;50.864;6.102;2024-03-23T03:02:44;91.07;;;11.80;;
11092;SDS011;5600;50.864;6.102;2024-03-23T03:05:46;106.80;;;14.37;;
11092;SDS011;5600;50.864;6.102;2024-03-23T03:08:47;79.40;;;12.17;;
11092;SDS011;5600;50.864;6.102;2024-03-23T03:11:48;125.03;;;17.27;;
11092;SDS011;5600;50.864;6.102;2024-03-23T03:14:49;113.13;;;13.70;;
11092;SDS011;5600;50.864;6.102;2024-03-23T03:17:50;105.40;;;12.17;;
11092;SDS011;5600;50.864;6.102;2024-03-23T03:20:53;93.27;;;12.33;;
11092;SDS011;5600;50.864;6.102;2024-03-23T03:23:55;88.77;;;9.90;;
11092;SDS011;5600;50.864;6.102;2024-03-23T03:26:56;109.50;;;14.00;;
11092;SDS011;5600;50.864;6.102;2024-03-23T03:29:58;87.80;;;10.80;;
11092;SDS011;5600;50.864;6.102;2024-03-23T03:33:01;103.73;;;13.33;;
11092;SDS011;5600;50.864;6.102;2024-03-23T03:36:02;110.60;;;12.67;;
11092;SDS011;5600;50.864;6.102;2024-03-23T03:39:03;105.27;;;13.00;;
11092;SDS011;5600;50.864;6.102;2024-03-23T03:42:04;92.40;;;13.17;;
11092;SDS011;5600;50.864;6.102;2024-03-23T03:45:07;80.20;;;11.67;;
11092;SDS011;5600;50.864;6.102;2024-03-23T03:48:08;76.53;;;10.80;;
11092;SDS011;5600;50.864;6.102;2024-03-23T03:51:09;69.93;;;10.83;;
11092;SDS011;5600;50.864;6.102;2024-03-23T03:54:10;74.17;;;5.00;;
11092;SDS011;5600;50.864;6.102;2024-03-23T03:57:11;90.60;;;11.80;;
11092;SDS011;5600;50.864;6.102;2024-03-23T04:00:12;90.17;;;11.93;;
11092;SDS011;5600;50.864;6.102;2024-03-23T04:03:13;84.13;;;12.80;;
11092;SDS011;5600;50.864;6.102;2024-03-23T04:06:20;91.67;;;12.30;;
11092;SDS011;5600;50.864;6.102;2024-03-23T04:09:21;84.70;;;11.87;;
11092;SDS011;5600;50.864;6.102;2024-03-23T04:12:23;154.33;;;13.27;;
11092;SDS011;5600;50.864;6.102;2024-03-23T04:15:24;74.27;;;10.87;;
11092;SDS011;5600;50.864;6.102;2024-03-23T04:18:25;65.13;;;10.37;;
11092;SDS011;5600;50.864;6.102;2024-03-23T04:21:26;90.03;;;11.63;;
11092;SDS011;5600;50.864;6.102;2024-03-23T04:24:27;66.33;;;4.70;;
11092;SDS011;5600;50.864;6.102;2024-03-23T04:27:29;74.60;;;9.70;;
11092;SDS011;5600;50.864;6.102;2024-03-23T04:30:29;76.30;;;11.50;;
11092;SDS011;5600;50.864;6.102;2024-03-23T04:33:32;79.00;;;10.47;;
11092;SDS011;5600;50.864;6.102;2024-03-23T04:36:32;83.07;;;12.60;;
11092;SDS011;5600;50.864;6.102;2024-03-23T04:39:33;77.40;;;7.53;;
11092;SDS011;5600;50.864;6.102;2024-03-23T04:42:36;87.50;;;11.40;;
11092;SDS011;5600;50.864;6.102;2024-03-23T04:45:37;89.43;;;10.13;;
11092;SDS011;5600;50.864;6.102;2024-03-23T04:48:38;91.43;;;10.57;;
11092;SDS011;5600;50.864;6.102;2024-03-23T04:51:39;74.57;;;10.90;;
11092;SDS011;5600;50.864;6.102;2024-03-23T04:54:41;92.87;;;11.57;;
11092;SDS011;5600;50.864;6.102;2024-03-23T04:57:43;85.77;;;11.63;;
11092;SDS011;5600;50.864;6.102;2024-03-23T05:00:44;85.97;;;14.10;;
11092;SDS011;5600;50.864;6.102;2024-03-23T05:03:45;83.87;;;11.37;;
11092;SDS011;5600;50.864;6.102;2024-03-23T05:06:46;87.37;;;11.17;;
11092;SDS011;5600;50.864;6.102;2024-03-23T05:09:47;108.73;;;10.77;;
11092;SDS011;5600;50.864;6.102;2024-03-23T05:12:49;146.37;;;13.93;;
11092;SDS011;5600;50.864;6.102;2024-03-23T05:15:51;92.43;;;11.77;;
11092;SDS011;5600;50.864;6.102;2024-03-23T05:18:55;97.50;;;13.93;;
11092;SDS011;5600;50.864;6.102;2024-03-23T05:21:56;111.07;;;12.33;;
11092;SDS011;5600;50.864;6.102;2024-03-23T05:24:57;86.90;;;13.10;;
11092;SDS011;5600;50.864;6.102;2024-03-23T05:27:58;111.13;;;14.23;;
11092;SDS011;5600;50.864;6.102;2024-03-23T05:31:00;98.03;;;14.00;;
11092;SDS011;5600;50.864;6.102;2024-03-23T05:34:00;113.17;;;11.77;;
11092;SDS011;5600;50.864;6.102;2024-03-23T05:37:01;118.10;;;14.13;;
11092;SDS011;5600;50.864;6.102;2024-03-23T05:40:03;100.07;;;14.40;;
11092;SDS011;5600;50.864;6.102;2024-03-23T05:43:04;107.67;;;13.13;;
11092;SDS011;5600;50.864;6.102;2024-03-23T05:46:05;118.70;;;13.23;;
11092;SDS011;5600;50.864;6.102;2024-03-23T05:49:08;94.77;;;11.53;;
11092;SDS011;5600;50.864;6.102;2024-03-23T05:52:09;125.10;;;15.70;;
11092;SDS011;5600;50.864;6.102;2024-03-23T05:55:10;101.07;;;12.80;;
11092;SDS011;5600;50.864;6.102;2024-03-23T05:58:11;92.30;;;12.53;;
11092;SDS011;5600;50.864;6.102;2024-03-23T06:01:12;102.33;;;16.10;;
11092;SDS011;5600;50.864;6.102;2024-03-23T06:04:13;99.43;;;12.63;;
11092;SDS011;5600;50.864;6.102;2024-03-23T06:07:14;81.07;;;12.97;;
11092;SDS011;5600;50.864;6.102;2024-03-23T06:10:15;139.63;;;17.70;;
11092;SDS011;5600;50.864;6.102;2024-03-23T06:13:16;125.37;;;16.00;;
11092;SDS011;5600;50.864;6.102;2024-03-23T06:16:18;85.27;;;13.93;;
11092;SDS011;5600;50.864;6.102;2024-03-23T06:19:23;83.00;;;8.40;;
11092;SDS011;5600;50.864;6.102;2024-03-23T06:22:27;95.13;;;13.57;;
11092;SDS011;5600;50.864;6.102;2024-03-23T06:25:28;114.73;;;14.73;;
11092;SDS011;5600;50.864;6.102;2024-03-23T06:28:29;97.37;;;14.27;;
11092;SDS011;5600;50.864;6.102;2024-03-23T06:31:31;89.77;;;14.77;;
11092;SDS011;5600;50.864;6.102;2024-03-23T06:34:32;92.37;;;14.63;;
11092;SDS011;5600;50.864;6.102;2024-03-23T06:37:33;94.30;;;14.37;;
11092;SDS011;5600;50.864;6.102;2024-03-23T06:40:35;122.97;;;13.90;;
11092;SDS011;5600;50.864;6.102;2024-03-23T06:43:36;108.47;;;15.37;;
11092;SDS011;5600;50.864;6.102;2024-03-23T06:46:37;109.80;;;16.30;;
11092;SDS011;5600;50.864;6.102;2024-03-23T06:49:38;103.03;;;16.63;;
11092;SDS011;5600;50.864;6.102;2024-03-23T06:52:39;106.27;;;15.67;;
11092;SDS011;5600;50.864;6.102;2024-03-23T06:55:40;90.23;;;14.73;;
11092;SDS011;5600;50.864;6.102;2024-03-23T06:58:42;94.53;;;14.47;;
11092;SDS011;5600;50.864;6.102;2024-03-23T07:01:43;79.33;;;11.57;;
11092;SDS011;5600;50.864;6.102;2024-03-23T07:04:44;68.77;;;11.33;;
11092;SDS011;5600;50.864;6.102;2024-03-23T07:07:45;71.93;;;12.07;;
11092;SDS011;5600;50.864;6.102;2024-03-23T07:10:45;66.00;;;7.03;;
11092;SDS011;5600;50.864;6.102;2024-03-23T07:13:49;111.27;;;6.97;;
11092;SDS011;5600;50.864;6.102;2024-03-23T07:16:51;145.27;;;13.70;;
11092;SDS011;5600;50.864;6.102;2024-03-23T07:19:52;107.23;;;11.03;;
11092;SDS011;5600;50.864;6.102;2024-03-23T07:22:53;92.37;;;13.90;;
11092;SDS011;5600;50.864;6.102;2024-03-23T07:26:01;111.40;;;14.43;;
11092;SDS011;5600;50.864;6.102;2024-03-23T07:29:04;110.13;;;14.23;;
11092;SDS011;5600;50.864;6.102;2024-03-23T07:32:06;112.93;;;15.57;;
11092;SDS011;5600;50.864;6.102;2024-03-23T07:35:07;94.67;;;11.47;;
11092;SDS011;5600;50.864;6.102;2024-03-23T07:38:08;74.30;;;12.97;;
11092;SDS011;5600;50.864;6.102;2024-03-23T07:41:09;79.70;;;11.57;;
11092;SDS011;5600;50.864;6.102;2024-03-23T07:44:12;110.50;;;13.07;;
11092;SDS011;5600;50.864;6.102;2024-03-23T07:47:13;88.00;;;12.13;;
11092;SDS011;5600;50.864;6.102;2024-03-23T07:50:14;117.70;;;14.30;;
11092;SDS011;5600;50.864;6.102;2024-03-23T07:53:15;127.33;;;16.17;;
11092;SDS011;5600;50.864;6.102;2024-03-23T07:56:16;127.77;;;15.97;;
11092;SDS011;5600;50.864;6.102;2024-03-23T07:59:19;114.47;;;15.17;;
11092;SDS011;5600;50.864;6.102;2024-03-23T08:02:20;179.60;;;18.17;;
11092;SDS011;5600;50.864;6.102;2024-03-23T08:05:21;116.73;;;11.10;;
11092;SDS011;5600;50.864;6.102;2024-03-23T08:08:22;211.50;;;17.93;;
11092;SDS011;5600;50.864;6.102;2024-03-23T08:11:23;133.60;;;15.60;;
11092;SDS011;5600;50.864;6.102;2024-03-23T08:14:24;121.40;;;15.03;;
11092;SDS011;5600;50.864;6.102;2024-03-23T08:17:25;121.77;;;14.17;;
11092;SDS011;5600;50.864;6.102;2024-03-23T08:20:26;152.33;;;14.87;;
11092;SDS011;5600;50.864;6.102;2024-03-23T08:23:28;135.83;;;11.53;;
11092;SDS011;5600;50.864;6.102;2024-03-23T08:26:29;154.87;;;15.93;;
11092;SDS011;5600;50.864;6.102;2024-03-23T08:29:30;150.80;;;15.20;;
11092;SDS011;5600;50.864;6.102;2024-03-23T08:32:31;126.37;;;14.63;;
11092;SDS011;5600;50.864;6.102;2024-03-23T08:35:32;141.70;;;14.63;;
11092;SDS011;5600;50.864;6.102;2024-03-23T08:38:35;134.90;;;13.43;;
11092;SDS011;5600;50.864;6.102;2024-03-23T08:41:36;109.07;;;14.50;;
11092;SDS011;5600;50.864;6.102;2024-03-23T08:44:37;96.70;;;10.33;;
11092;SDS011;5600;50.864;6.102;2024-03-23T08:47:38;115.40;;;14.57;;
11092;SDS011;5600;50.864;6.102;2024-03-23T08:50:39;89.20;;;12.47;;
11092;SDS011;5600;50.864;6.102;2024-03-23T08:53:41;91.57;;;12.10;;
11092;SDS011;5600;50.864;6.102;2024-03-23T08:56:42;126.33;;;15.50;;
11092;SDS011;5600;50.864;6.102;2024-03-23T08:59:43;118.60;;;12.93;;
11092;SDS011;5600;50.864;6.102;2024-03-23T09:02:47;146.87;;;14.70;;
11092;SDS011;5600;50.864;6.102;2024-03-23T09:05:48;92.27;;;10.40;;
11092;SDS011;5600;50.864;6.102;2024-03-23T09:08:50;107.50;;;11.93;;
11092;SDS011;5600;50.864;6.102;2024-03-23T09:11:50;136.80;;;12.53;;
11092;SDS011;5600;50.864;6.102;2024-03-23T09:14:51;98.87;;;11.33;;
11092;SDS011;5600;50.864;6.102;2024-03-23T09:17:53;104.57;;;5.87;;
11092;SDS011;5600;50.864;6.102;2024-03-23T09:20:54;133.50;;;13.60;;
11092;SDS011;5600;50.864;6.102;2024-03-23T09:23:57;66.07;;;4.60;;
11092;SDS011;5600;50.864;6.102;2024-03-23T09:26:58;103.30;;;11.17;;
11092;SDS011;5600;50.864;6.102;2024-03-23T09:29:59;96.73;;;10.10;;
11092;SDS011;5600;50.864;6.102;2024-03-23T09:33:00;122.07;;;12.97;;
11092;SDS011;5600;50.864;6.102;2024-03-23T09:36:04;105.63;;;11.63;;
11092;SDS011;5600;50.864;6.102;2024-03-23T09:39:06;135.17;;;15.00;;
11092;SDS011;5600;50.864;6.102;2024-03-23T09:42:09;115.53;;;13.97;;
11092;SDS011;5600;50.864;6.102;2024-03-23T09:45:11;117.60;;;12.73;;
11092;SDS011;5600;50.864;6.102;2024-03-23T09:48:15;181.93;;;15.97;;
11092;SDS011;5600;50.864;6.102;2024-03-23T09:51:16;133.37;;;11.03;;
11092;SDS011;5600;50.864;6.102;2024-03-23T09:54:17;210.30;;;16.03;;
11092;SDS011;5600;50.864;6.102;2024-03-23T09:57:19;168.97;;;14.73;;
11092;SDS011;5600;50.864;6.102;2024-03-23T10:00:20;129.57;;;13.00;;
11092;SDS011;5600;50.864;6.102;2024-03-23T10:03:21;148.07;;;14.00;;
11092;SDS011;5600;50.864;6.102;2024-03-23T10:06:22;206.03;;;16.20;;
11092;SDS011;5600;50.864;6.102;2024-03-23T10:09:26;247.63;;;14.23;;
11092;SDS011;5600;50.864;6.102;2024-03-23T10:12:27;273.17;;;18.03;;
11092;SDS011;5600;50.864;6.102;2024-03-23T10:15:28;200.67;;;17.60;;
11092;SDS011;5600;50.864;6.102;2024-03-23T10:18:30;151.07;;;12.73;;
11092;SDS011;5600;50.864;6.102;2024-03-23T10:21:32;139.27;;;15.00;;
11092;SDS011;5600;50.864;6.102;2024-03-23T10:24:33;108.50;;;10.97;;
11092;SDS011;5600;50.864;6.102;2024-03-23T10:27:35;202.73;;;16.53;;
11092;SDS011;5600;50.864;6.102;2024-03-23T10:30:36;138.47;;;13.87;;
11092;SDS011;5600;50.864;6.102;2024-03-23T10:33:38;146.80;;;10.27;;
11092;SDS011;5600;50.864;6.102;2024-03-23T10:36:45;266.40;;;18.67;;
11092;SDS011;5600;50.864;6.102;2024-03-23T10:39:46;146.70;;;13.03;;
11092;SDS011;5600;50.864;6.102;2024-03-23T10:42:47;164.47;;;14.20;;
11092;SDS011;5600;50.864;6.102;2024-03-23T10:45:49;185.23;;;13.10;;
11092;SDS011;5600;50.864;6.102;2024-03-23T10:48:50;150.53;;;13.77;;
11092;SDS011;5600;50.864;6.102;2024-03-23T10:51:51;149.50;;;10.40;;
11092;SDS011;5600;50.864;6.102;2024-03-23T10:54:52;146.03;;;15.23;;
11092;SDS011;5600;50.864;6.102;2024-03-23T10:57:56;153.37;;;15.87;;
11092;SDS011;5600;50.864;6.102;2024-03-23T11:00:58;222.23;;;16.53;;
11092;SDS011;5600;50.864;6.102;2024-03-23T11:04:00;148.07;;;14.60;;
11092;SDS011;5600;50.864;6.102;2024-03-23T11:07:01;110.20;;;10.93;;
11092;SDS011;5600;50.864;6.102;2024-03-23T11:10:03;189.03;;;16.07;;
11092;SDS011;5600;50.864;6.102;2024-03-23T11:13:27;151.17;;;11.73;;
11092;SDS011;5600;50.864;6.102;2024-03-23T11:16:30;128.33;;;11.13;;
11092;SDS011;5600;50.864;6.102;2024-03-23T11:19:33;147.07;;;12.07;;
11092;SDS011;5600;50.864;6.102;2024-03-23T11:25:41;107.60;;;7.00;;
11092;SDS011;5600;50.864;6.102;2024-03-23T11:28:42;144.17;;;11.37;;
11092;SDS011;5600;50.864;6.102;2024-03-23T11:31:47;112.47;;;11.77;;
11092;SDS011;5600;50.864;6.102;2024-03-23T11:34:48;125.53;;;12.20;;
11092;SDS011;5600;50.864;6.102;2024-03-23T11:38:00;115.73;;;11.80;;
11092;SDS011;5600;50.864;6.102;2024-03-23T11:41:02;124.33;;;10.83;;
11092;SDS011;5600;50.864;6.102;2024-03-23T11:44:19;133.33;;;12.03;;
11092;SDS011;5600;50.864;6.102;2024-03-23T11:47:22;116.57;;;11.27;;
11092;SDS011;5600;50.864;6.102;2024-03-23T11:50:23;113.40;;;11.80;;
11092;SDS011;5600;50.864;6.102;2024-03-23T11:53:25;115.80;;;10.07;;
11092;SDS011;5600;50.864;6.102;2024-03-23T11:56:30;103.37;;;8.87;;
11092;SDS011;5600;50.864;6.102;2024-03-23T12:02:32;145.90;;;11.50;;
11092;SDS011;5600;50.864;6.102;2024-03-23T12:05:34;122.53;;;8.17;;
11092;SDS011;5600;50.864;6.102;2024-03-23T12:08:35;104.80;;;10.13;;
11092;SDS011;5600;50.864;6.102;2024-03-23T12:11:38;106.03;;;8.90;;
11092;SDS011;5600;50.864;6.102;2024-03-23T12:14:39;132.53;;;11.73;;
11092;SDS011;5600;50.864;6.102;2024-03-23T12:17:40;128.17;;;11.47;;
11092;SDS011;5600;50.864;6.102;2024-03-23T12:20:41;102.63;;;6.10;;
11092;SDS011;5600;50.864;6.102;2024-03-23T12:23:43;128.33;;;10.97;;
11092;SDS011;5600;50.864;6.102;2024-03-23T12:26:48;164.83;;;13.73;;
11092;SDS011;5600;50.864;6.102;2024-03-23T12:29:50;118.37;;;7.23;;
11092;SDS011;5600;50.864;6.102;2024-03-23T12:32:51;175.17;;;9.10;;
11092;SDS011;5600;50.864;6.102;2024-03-23T12:35:52;108.37;;;6.93;;
11092;SDS011;5600;50.864;6.102;2024-03-23T12:38:54;140.57;;;9.93;;
11092;SDS011;5600;50.864;6.102;2024-03-23T12:41:55;107.83;;;8.80;;
11092;SDS011;5600;50.864;6.102;2024-03-23T12:44:56;148.27;;;9.97;;
11092;SDS011;5600;50.864;6.102;2024-03-23T12:47:57;161.97;;;10.13;;
11092;SDS011;5600;50.864;6.102;2024-03-23T12:50:58;96.53;;;8.20;;
11092;SDS011;5600;50.864;6.102;2024-03-23T12:53:59;81.23;;;6.67;;
11092;SDS011;5600;50.864;6.102;2024-03-23T12:57:01;97.47;;;8.93;;
11092;SDS011;5600;50.864;6.102;2024-03-23T13:00:02;59.23;;;6.30;;
11092;SDS011;5600;50.864;6.102;2024-03-23T13:03:04;88.53;;;5.83;;
11092;SDS011;5600;50.864;6.102;2024-03-23T13:06:05;104.70;;;11.00;;
11092;SDS011;5600;50.864;6.102;2024-03-23T13:09:08;145.57;;;12.83;;
11092;SDS011;5600;50.864;6.102;2024-03-23T13:12:09;108.40;;;12.97;;
11092;SDS011;5600;50.864;6.102;2024-03-23T13:15:10;99.50;;;10.73;;
11092;SDS011;5600;50.864;6.102;2024-03-23T13:18:11;172.90;;;13.03;;
11092;SDS011;5600;50.864;6.102;2024-03-23T13:21:12;105.30;;;10.63;;
11092;SDS011;5600;50.864;6.102;2024-03-23T13:24:14;151.90;;;12.47;;
11092;SDS011;5600;50.864;6.102;2024-03-23T13:27:15;86.03;;;7.50;;
11092;SDS011;5600;50.864;6.102;2024-03-23T13:30:16;113.33;;;11.43;;
11092;SDS011;5600;50.864;6.102;2024-03-23T13:33:17;173.17;;;11.87;;
11092;SDS011;5600;50.864;6.102;2024-03-23T13:36:18;131.67;;;13.90;;
11092;SDS011;5600;50.864;6.102;2024-03-23T13:39:19;170.07;;;12.37;;
11092;SDS011;5600;50.864;6.102;2024-03-23T13:42:20;237.00;;;17.27;;
11092;SDS011;5600;50.864;6.102;2024-03-23T13:45:25;146.70;;;10.77;;
11092;SDS011;5600;50.864;6.102;2024-03-23T13:48:26;87.60;;;7.70;;
11092;SDS011;5600;50.864;6.102;2024-03-23T13:51:29;99.03;;;9.00;;
11092;SDS011;5600;50.864;6.102;2024-03-23T13:54:30;171.20;;;10.70;;
11092;SDS011;5600;50.864;6.102;2024-03-23T13:57:32;158.37;;;13.60;;
11092;SDS011;5600;50.864;6.102;2024-03-23T14:00:33;87.93;;;9.60;;
11092;SDS011;5600;50.864;6.102;2024-03-23T14:03:34;141.60;;;10.97;;
11092;SDS011;5600;50.864;6.102;2024-03-23T14:06:35;108.63;;;7.43;;
11092;SDS011;5600;50.864;6.102;2024-03-23T14:09:36;131.30;;;10.47;;
11092;SDS011;5600;50.864;6.102;2024-03-23T14:12:37;180.20;;;13.37;;
11092;SDS011;5600;50.864;6.102;2024-03-23T14:15:39;207.77;;;15.13;;
11092;SDS011;5600;50.864;6.102;2024-03-23T14:18:40;166.97;;;14.70;;
11092;SDS011;5600;50.864;6.102;2024-03-23T14:21:41;195.93;;;14.07;;
11092;SDS011;5600;50.864;6.102;2024-03-23T14:24:42;193.93;;;15.50;;
11092;SDS011;5600;50.864;6.102;2024-03-23T14:27:43;196.70;;;14.83;;
11092;SDS011;5600;50.864;6.102;2024-03-23T14:30:45;161.93;;;11.27;;
11092;SDS011;5600;50.864;6.102;2024-03-23T14:33:46;118.63;;;7.43;;
11092;SDS011;5600;50.864;6.102;2024-03-23T14:36:47;159.43;;;13.93;;
11092;SDS011;5600;50.864;6.102;2024-03-23T14:39:48;165.97;;;11.43;;
11092;SDS011;5600;50.864;6.102;2024-03-23T14:42:49;164.27;;;11.27;;
11092;SDS011;5600;50.864;6.102;2024-03-23T14:46:10;98.10;;;9.13;;
11092;SDS011;5600;50.864;6.102;2024-03-23T14:49:14;136.60;;;10.97;;
11092;SDS011;5600;50.864;6.102;2024-03-23T14:52:19;188.13;;;13.60;;
11092;SDS011;5600;50.864;6.102;2024-03-23T14:55:21;136.13;;;12.43;;
11092;SDS011;5600;50.864;6.102;2024-03-23T14:58:22;105.23;;;9.47;;
11092;SDS011;5600;50.864;6.102;2024-03-23T15:01:24;108.63;;;13.67;;
11092;SDS011;5600;50.864;6.102;2024-03-23T15:04:25;106.93;;;9.43;;
11092;SDS011;5600;50.864;6.102;2024-03-23T15:07:26;175.40;;;15.17;;
11092;SDS011;5600;50.864;6.102;2024-03-23T15:10:28;106.00;;;10.60;;
11092;SDS011;5600;50.864;6.102;2024-03-23T15:13:29;111.87;;;10.47;;
11092;SDS011;5600;50.864;6.102;2024-03-23T15:16:30;119.43;;;11.93;;
11092;SDS011;5600;50.864;6.102;2024-03-23T15:19:31;127.33;;;6.53;;
11092;SDS011;5600;50.864;6.102;2024-03-23T15:22:33;128.30;;;6.37;;
11092;SDS011;5600;50.864;6.102;2024-03-23T15:25:34;99.67;;;5.33;;
11092;SDS011;5600;50.864;6.102;2024-03-23T15:28:35;161.10;;;7.77;;
11092;SDS011;5600;50.864;6.102;2024-03-23T15:32:00;139.20;;;6.80;;
11092;SDS011;5600;50.864;6.102;2024-03-23T15:35:01;90.17;;;5.20;;
11092;SDS011;5600;50.864;6.102;2024-03-23T15:38:03;102.27;;;5.63;;
11092;SDS011;5600;50.864;6.102;2024-03-23T15:41:04;84.70;;;4.83;;
11092;SDS011;5600;50.864;6.102;2024-03-23T15:44:05;70.13;;;3.97;;
11092;SDS011;5600;50.864;6.102;2024-03-23T15:47:06;78.57;;;5.37;;
11092;SDS011;5600;50.864;6.102;2024-03-23T15:50:07;92.30;;;5.03;;
11092;SDS011;5600;50.864;6.102;2024-03-23T15:53:09;60.17;;;4.23;;
11092;SDS011;5600;50.864;6.102;2024-03-23T15:56:10;173.67;;;9.60;;
11092;SDS011;5600;50.864;6.102;2024-03-23T15:59:11;142.57;;;6.97;;
11092;SDS011;5600;50.864;6.102;2024-03-23T16:02:12;124.87;;;6.93;;
11092;SDS011;5600;50.864;6.102;2024-03-23T16:05:13;81.40;;;5.10;;
11092;SDS011;5600;50.864;6.102;2024-03-23T16:08:15;75.63;;;4.73;;
11092;SDS011;5600;50.864;6.102;2024-03-23T16:11:16;134.43;;;7.20;;
11092;SDS011;5600;50.864;6.102;2024-03-23T16:14:18;160.50;;;7.80;;
11092;SDS011;5600;50.864;6.102;2024-03-23T16:17:19;137.40;;;7.57;;
11092;SDS011;5600;50.864;6.102;2024-03-23T16:20:20;106.00;;;5.40;;
11092;SDS011;5600;50.864;6.102;2024-03-23T16:23:21;156.80;;;8.00;;
11092;SDS011;5600;50.864;6.102;2024-03-23T16:26:23;86.87;;;5.20;;
11092;SDS011;5600;50.864;6.102;2024-03-23T16:29:24;71.87;;;4.27;;
11092;SDS011;5600;50.864;6.102;2024-03-23T16:32:25;155.47;;;8.67;;
11092;SDS011;5600;50.864;6.102;2024-03-23T16:35:29;111.63;;;5.70;;
11092;SDS011;5600;50.864;6.102;2024-03-23T16:38:31;59.90;;;4.17;;
11092;SDS011;5600;50.864;6.102;2024-03-23T16:41:32;72.67;;;4.50;;
11092;SDS011;5600;50.864;6.102;2024-03-23T16:44:34;113.13;;;6.00;;
11092;SDS011;5600;50.864;6.102;2024-03-23T16:47:35;112.90;;;6.33;;
11092;SDS011;5600;50.864;6.102;2024-03-23T16:50:36;96.73;;;5.30;;
11092;SDS011;5600;50.864;6.102;2024-03-23T16:53:37;149.70;;;7.70;;
11092;SDS011;5600;50.864;6.102;2024-03-23T16:56:42;108.53;;;5.93;;
11092;SDS011;5600;50.864;6.102;2024-03-23T16:59:43;104.00;;;5.77;;
11092;SDS011;5600;50.864;6.102;2024-03-23T17:02:44;129.83;;;7.27;;
11092;SDS011;5600;50.864;6.102;2024-03-23T17:05:46;97.77;;;5.97;;
11092;SDS011;5600;50.864;6.102;2024-03-23T17:08:47;105.63;;;6.90;;
11092;SDS011;5600;50.864;6.102;2024-03-23T17:11:48;112.00;;;7.43;;
11092;SDS011;5600;50.864;6.102;2024-03-23T17:14:50;112.60;;;6.87;;
11092;SDS011;5600;50.864;6.102;2024-03-23T17:17:51;113.20;;;6.17;;
11092;SDS011;5600;50.864;6.102;2024-03-23T17:20:53;111.20;;;5.87;;
11092;SDS011;5600;50.864;6.102;2024-03-23T17:23:54;154.00;;;7.60;;
11092;SDS011;5600;50.864;6.102;2024-03-23T17:26:57;119.80;;;6.33;;
11092;SDS011;5600;50.864;6.102;2024-03-23T17:29:58;146.10;;;7.13;;
11092;SDS011;5600;50.864;6.102;2024-03-23T17:32:59;171.10;;;11.03;;
11092;SDS011;5600;50.864;6.102;2024-03-23T17:36:02;100.07;;;6.67;;
11092;SDS011;5600;50.864;6.102;2024-03-23T17:39:03;92.80;;;5.40;;
11092;SDS011;5600;50.864;6.102;2024-03-23T17:42:04;105.23;;;5.30;;
11092;SDS011;5600;50.864;6.102;2024-03-23T17:45:05;87.13;;;4.83;;
11092;SDS011;5600;50.864;6.102;2024-03-23T17:48:11;102.57;;;5.17;;
11092;SDS011;5600;50.864;6.102;2024-03-23T17:51:14;80.77;;;4.37;;
11092;SDS011;5600;50.864;6.102;2024-03-23T17:54:16;106.10;;;5.40;;
11092;SDS011;5600;50.864;6.102;2024-03-23T17:57:19;105.17;;;5.20;;
11092;SDS011;5600;50.864;6.102;2024-03-23T18:00:21;82.83;;;4.50;;
11092;SDS011;5600;50.864;6.102;2024-03-23T18:03:22;70.87;;;4.20;;
11092;SDS011;5600;50.864;6.102;2024-03-23T18:06:23;95.90;;;5.40;;
11092;SDS011;5600;50.864;6.102;2024-03-23T18:09:24;98.77;;;5.50;;
11092;SDS011;5600;50.864;6.102;2024-03-23T18:12:25;190.37;;;10.00;;
11092;SDS011;5600;50.864;6.102;2024-03-23T18:15:26;90.40;;;5.53;;
11092;SDS011;5600;50.864;6.102;2024-03-23T18:18:27;146.83;;;8.33;;
11092;SDS011;5600;50.864;6.102;2024-03-23T18:21:29;81.70;;;6.37;;
11092;SDS011;5600;50.864;6.102;2024-03-23T18:24:30;191.33;;;10.60;;
11092;SDS011;5600;50.864;6.102;2024-03-23T18:27:31;130.73;;;7.80;;
11092;SDS011;5600;50.864;6.102;2024-03-23T18:30:32;143.97;;;7.93;;
11092;SDS011;5600;50.864;6.102;2024-03-23T18:33:36;147.10;;;8.47;;
11092;SDS011;5600;50.864;6.102;2024-03-23T18:36:38;65.90;;;4.83;;
11092;SDS011;5600;50.864;6.102;2024-03-23T18:39:39;202.20;;;10.10;;
11092;SDS011;5600;50.864;6.102;2024-03-23T18:42:41;116.87;;;6.33;;
11092;SDS011;5600;50.864;6.102;2024-03-23T18:45:46;96.07;;;5.57;;
11092;SDS011;5600;50.864;6.102;2024-03-23T18:48:48;158.87;;;8.47;;
11092;SDS011;5600;50.864;6.102;2024-03-23T18:51:49;166.73;;;8.47;;
11092;SDS011;5600;50.864;6.102;2024-03-23T18:54:50;93.73;;;5.63;;